Time;durP1;ratioP1;P1;durP2;ratioP2;P2;SDS_P1;SDS_P2;PMS_P1;PMS_P2;Temp;Humidity;BMP_temperature;BMP_pressure;BME280_temperature;BME280_humidity;BME280_pressure;Samples;Min_cycle;Max_cycle;Signal;HPM_P1;HPM_P2
2021/08/17 00:00:11;;;;;;;;;;;20.30;91.90;20.40;99975.00;;;;339844;28;91928;-93
2021/08/17 00:00:23;;;;;;;;;;;20.40;91.90;20.40;99968.00;;;;340486;28;83490;-92
2021/08/17 00:00:35;;;;;;;;;;;20.40;92.00;20.40;99968.00;;;;345641;28;91591;-92
2021/08/17 00:00:47;;;;;;;;;;;20.30;91.90;20.40;99970.00;;;;340482;28;83487;-92
2021/08/17 00:00:59;;;;;;;;;;;20.40;92.00;20.40;99966.00;;;;342793;28;91227;-92
2021/08/17 00:01:12;;;;;;;;;;;20.40;92.00;20.40;99971.00;;;;341852;28;83488;-92
2021/08/17 00:01:24;;;;;;;;;;;20.40;92.00;20.40;99972.00;;;;341339;28;91964;-91
2021/08/17 00:01:36;;;;;;;;;;;20.30;91.90;20.50;99971.00;;;;337810;28;84006;-92
2021/08/17 00:01:48;;;;;;;;;;;20.30;91.90;20.40;99968.00;;;;340107;27;91408;-91
2021/08/17 00:02:00;;;;;;;;;;;20.40;91.90;20.40;99971.00;;;;340112;28;83450;-92
2021/08/17 00:02:12;;;;;;;;;;;20.40;91.90;20.40;99972.00;;;;340096;28;91952;-91
2021/08/17 00:02:24;;;;;;;;;;;20.30;91.90;20.20;99965.00;;;;341797;28;83518;-92
2021/08/17 00:02:36;;;;;;;;;;;20.30;92.00;20.30;99973.00;;;;341376;28;91437;-92
2021/08/17 00:02:49;;;;;;;;;;;20.30;92.00;20.30;99968.00;;;;340456;28;83511;-91
2021/08/17 00:03:00;;;;;;;;;;;20.30;92.10;20.20;99965.00;;;;340027;28;92609;-91
2021/08/17 00:03:12;;;;;;;;;;;20.30;92.10;20.10;99965.00;;;;339146;28;83318;-91
2021/08/17 00:03:24;;;;;;;;;;;20.30;92.10;20.10;99969.00;;;;341423;28;90791;-92
2021/08/17 00:03:36;;;;;;;;;;;20.30;92.00;20.20;99967.00;;;;340543;28;83324;-91
2021/08/17 00:03:48;;;;;;;;;;;20.30;92.10;20.00;99966.00;;;;341432;28;90719;-91
2021/08/17 00:04:00;;;;;;;;;;;20.30;92.10;20.10;99965.00;;;;339070;28;83482;-91
2021/08/17 00:04:12;;;;;;;;;;;20.20;92.10;20.20;99958.00;;;;341103;28;92026;-91
2021/08/17 00:04:24;;;;;;;;;;;20.20;92.10;20.10;99965.00;;;;341908;28;82554;-91
2021/08/17 00:04:36;;;;;;;;;;;20.20;92.10;20.00;99966.00;;;;341415;28;91675;-92
2021/08/17 00:04:47;;;;;;;;;;;20.20;92.10;20.20;99962.00;;;;340143;28;83453;-91
2021/08/17 00:04:59;;;;;;;;;;;20.20;92.20;20.20;99960.00;;;;342227;28;91641;-91
2021/08/17 00:05:11;;;;;;;;;;;20.20;92.20;20.00;99968.00;;;;341760;28;83457;-93
2021/08/17 00:05:23;;;;;;;;;;;20.20;92.30;20.00;99961.00;;;;339515;28;91862;-92
2021/08/17 00:05:38;;;;;;;;;;;20.10;92.30;20.00;99958.00;;;;341867;28;83433;-92
2021/08/17 00:05:51;;;;;;;;;;;20.10;92.30;20.10;99964.00;;;;342347;28;90494;-91
2021/08/17 00:06:04;;;;;;;;;;;20.10;92.30;20.10;99966.00;;;;341798;28;82640;-91
2021/08/17 00:06:16;;;;;;;;;;;20.10;92.40;20.20;99966.00;;;;340100;28;91034;-91
2021/08/17 00:06:28;;;;;;;;;;;20.10;92.30;20.10;99963.00;;;;339261;28;82490;-91
2021/08/17 00:06:39;;;;;;;;;;;20.10;92.40;20.10;99968.00;;;;338714;28;90954;-91
2021/08/17 00:06:51;;;;;;;;;;;20.00;92.40;20.00;99966.00;;;;340370;28;83502;-91
2021/08/17 00:07:03;;;;;;;;;;;20.00;92.40;20.00;99969.00;;;;339953;28;92898;-91
2021/08/17 00:07:16;;;;;;;;;;;20.00;92.40;20.00;99968.00;;;;340432;28;83435;-92
2021/08/17 00:07:28;;;;;;;;;;;20.10;92.40;19.90;99966.00;;;;339776;28;91610;-91
2021/08/17 00:07:40;;;;;;;;;;;20.00;92.50;19.90;99961.00;;;;341946;28;82474;-91
2021/08/17 00:07:52;;;;;;;;;;;20.00;92.50;19.90;99966.00;;;;339594;28;91851;-92
2021/08/17 00:08:05;;;;;;;;;;;20.00;92.50;20.00;99964.00;;;;340382;28;83385;-91
2021/08/17 00:08:17;;;;;;;;;;;20.00;92.50;20.00;99965.00;;;;342500;28;90352;-92
2021/08/17 00:08:29;;;;;;;;;;;20.00;92.50;20.00;99959.00;;;;337812;28;82699;-91
2021/08/17 00:08:41;;;;;;;;;;;20.00;92.50;20.00;99963.00;;;;341466;28;90470;-92
2021/08/17 00:08:53;;;;;;;;;;;20.00;92.50;19.90;99962.00;;;;341469;27;82584;-92
2021/08/17 00:09:05;;;;;;;;;;;20.00;92.50;20.00;99963.00;;;;341334;28;92372;-90
2021/08/17 00:09:17;;;;;;;;;;;20.00;92.50;20.10;99965.00;;;;347530;28;83441;-92
2021/08/17 00:09:29;;;;;;;;;;;20.00;92.50;20.10;99960.00;;;;347076;28;91808;-90
2021/08/17 00:09:41;;;;;;;;;;;20.00;92.60;20.10;99967.00;;;;343226;28;82464;-92
2021/08/17 00:09:52;;;;;;;;;;;20.00;92.50;20.10;99957.00;;;;340025;28;91888;-92
2021/08/17 00:10:05;;;;;;;;;;;20.00;92.80;19.90;99956.00;;;;337925;28;83499;-92
2021/08/17 00:10:17;;;;;;;;;;;20.00;92.60;20.00;99962.00;;;;339717;28;90407;-91
2021/08/17 00:10:29;;;;;;;;;;;20.00;92.60;20.10;99959.00;;;;341888;28;82539;-92
2021/08/17 00:10:41;;;;;;;;;;;20.00;92.60;20.10;99952.00;;;;338606;28;92298;-92
2021/08/17 00:10:53;;;;;;;;;;;19.90;92.60;20.10;99956.00;;;;341766;27;83582;-92
2021/08/17 00:11:05;;;;;;;;;;;20.00;92.60;20.10;99957.00;;;;341207;28;91940;-92
2021/08/17 00:11:17;;;;;;;;;;;20.00;92.60;20.10;99958.00;;;;341565;28;83452;-92
2021/08/17 00:11:28;;;;;;;;;;;20.00;92.60;20.10;99957.00;;;;341425;28;91302;-92
2021/08/17 00:11:40;;;;;;;;;;;20.00;92.60;20.10;99954.00;;;;339178;28;82487;-92
2021/08/17 00:11:52;;;;;;;;;;;20.00;92.60;20.10;99952.00;;;;341813;28;89665;-92
2021/08/17 00:12:04;;;;;;;;;;;20.00;92.60;20.10;99958.00;;;;343082;28;83469;-92
2021/08/17 00:12:16;;;;;;;;;;;20.00;92.60;20.00;99961.00;;;;338761;28;91772;-92
2021/08/17 00:12:28;;;;;;;;;;;20.00;92.60;20.00;99958.00;;;;343027;27;83446;-93
2021/08/17 00:12:40;;;;;;;;;;;20.00;92.60;20.00;99956.00;;;;342744;28;91764;-92
2021/08/17 00:12:52;;;;;;;;;;;20.00;92.60;20.00;99958.00;;;;347100;28;83562;-93
2021/08/17 00:13:04;;;;;;;;;;;20.00;92.70;20.00;99954.00;;;;351329;27;92703;-92
2021/08/17 00:13:15;;;;;;;;;;;20.00;92.60;19.90;99954.00;;;;343180;28;83419;-92
2021/08/17 00:13:27;;;;;;;;;;;20.00;92.70;19.90;99960.00;;;;341344;28;91444;-92
2021/08/17 00:13:40;;;;;;;;;;;19.90;93.00;19.80;99958.00;;;;344653;28;82459;-92
2021/08/17 00:13:52;;;;;;;;;;;19.90;92.60;19.90;99955.00;;;;339596;28;90674;-92
2021/08/17 00:14:04;;;;;;;;;;;19.90;92.60;19.90;99958.00;;;;340368;28;83513;-92
2021/08/17 00:14:16;;;;;;;;;;;19.90;92.70;20.00;99960.00;;;;342729;28;92025;-92
2021/08/17 00:14:28;;;;;;;;;;;20.00;92.60;20.00;99961.00;;;;340459;28;82606;-92
2021/08/17 00:14:40;;;;;;;;;;;20.00;92.60;20.00;99956.00;;;;341359;28;91761;-92
2021/08/17 00:14:51;;;;;;;;;;;19.90;92.60;20.10;99960.00;;;;343184;28;83405;-91
2021/08/17 00:15:05;;;;;;;;;;;19.90;92.70;20.10;99958.00;;;;339798;28;92711;-91
2021/08/17 00:15:16;;;;;;;;;;;20.00;92.70;20.20;99956.00;;;;341721;28;83513;-91
2021/08/17 00:15:28;;;;;;;;;;;20.00;92.80;20.20;99955.00;;;;342747;28;90698;-93
2021/08/17 00:15:40;;;;;;;;;;;20.00;92.70;20.20;99959.00;;;;343174;28;83439;-91
2021/08/17 00:15:52;;;;;;;;;;;20.00;92.70;20.10;99955.00;;;;342554;28;90798;-92
2021/08/17 00:16:04;;;;;;;;;;;20.00;92.60;20.00;99953.00;;;;341851;28;83419;-91
2021/08/17 00:16:16;;;;;;;;;;;20.00;92.60;20.00;99955.00;;;;340080;28;89723;-91
2021/08/17 00:16:28;;;;;;;;;;;20.00;92.60;20.00;99960.00;;;;340511;28;83330;-92
2021/08/17 00:16:40;;;;;;;;;;;20.00;92.60;20.00;99958.00;;;;341337;28;92337;-92
2021/08/17 00:16:52;;;;;;;;;;;20.00;92.60;19.90;99955.00;;;;340658;28;83589;-91
2021/08/17 00:17:08;;;;;;;;;;;20.00;92.60;19.90;99954.00;;;;345681;28;92627;-91
2021/08/17 00:17:20;;;;;;;;;;;20.00;92.70;20.00;99948.00;;;;348554;27;82517;-92
2021/08/17 00:17:32;;;;;;;;;;;20.00;92.70;20.00;99957.00;;;;341388;28;91896;-92
2021/08/17 00:17:44;;;;;;;;;;;20.00;92.70;20.10;99959.00;;;;339083;28;82642;-91
2021/08/17 00:17:56;;;;;;;;;;;20.00;92.70;20.10;99956.00;;;;342918;28;90817;-92
2021/08/17 00:18:08;;;;;;;;;;;20.00;92.80;20.10;99947.00;;;;343233;28;83494;-92
2021/08/17 00:18:20;;;;;;;;;;;20.00;92.70;20.20;99954.00;;;;342907;28;90385;-92
2021/08/17 00:18:31;;;;;;;;;;;20.00;92.70;20.20;99956.00;;;;343131;28;83391;-91
2021/08/17 00:18:43;;;;;;;;;;;20.00;92.70;20.20;99952.00;;;;340060;28;91276;-92
2021/08/17 00:18:55;;;;;;;;;;;20.00;92.70;20.10;99954.00;;;;344513;28;83469;-91
2021/08/17 00:19:07;;;;;;;;;;;20.00;92.70;20.10;99959.00;;;;342683;28;91684;-92
2021/08/17 00:19:19;;;;;;;;;;;20.00;92.90;20.20;99958.00;;;;340391;28;82685;-91
2021/08/17 00:19:31;;;;;;;;;;;20.00;92.60;20.20;99955.00;;;;342696;28;91605;-92
2021/08/17 00:19:45;;;;;;;;;;;20.00;92.60;20.10;99958.00;;;;339232;28;83548;-92
2021/08/17 00:19:57;;;;;;;;;;;20.00;92.60;20.00;99956.00;;;;342293;28;91913;-92
2021/08/17 00:20:10;;;;;;;;;;;20.00;92.60;19.90;99960.00;;;;341306;28;83516;-93
2021/08/17 00:20:23;;;;;;;;;;;20.00;92.60;19.90;99955.00;;;;339943;28;91125;-92
2021/08/17 00:20:35;;;;;;;;;;;20.00;92.60;19.90;99957.00;;;;341697;28;83442;-92
2021/08/17 00:20:47;;;;;;;;;;;20.00;92.70;20.00;99966.00;;;;338765;28;89825;-92
2021/08/17 00:20:59;;;;;;;;;;;20.00;92.70;20.00;99963.00;;;;339240;28;83390;-92
2021/08/17 00:21:12;;;;;;;;;;;20.00;92.70;20.10;99962.00;;;;339981;28;93114;-92
2021/08/17 00:21:24;;;;;;;;;;;19.90;92.70;20.10;99959.00;;;;341804;28;82493;-91
2021/08/17 00:21:37;;;;;;;;;;;19.90;92.70;20.00;99962.00;;;;340073;28;90669;-92
2021/08/17 00:21:48;;;;;;;;;;;20.00;92.70;19.90;99958.00;;;;339204;28;82527;-91
2021/08/17 00:22:02;;;;;;;;;;;19.90;92.80;19.80;99965.00;;;;338640;28;90240;-92
2021/08/17 00:22:14;;;;;;;;;;;19.90;92.80;19.90;99965.00;;;;341870;28;82468;-91
2021/08/17 00:22:26;;;;;;;;;;;19.90;92.80;19.90;99968.00;;;;338796;28;92011;-91
2021/08/17 00:22:38;;;;;;;;;;;19.90;92.80;20.00;99967.00;;;;342876;28;82501;-91
2021/08/17 00:22:49;;;;;;;;;;;19.90;92.80;19.90;99965.00;;;;341633;27;90177;-92
2021/08/17 00:23:01;;;;;;;;;;;19.90;92.90;19.90;99960.00;;;;337610;28;83502;-91
2021/08/17 00:23:13;;;;;;;;;;;19.90;92.80;19.80;99965.00;;;;340013;28;92311;-91
2021/08/17 00:23:25;;;;;;;;;;;19.90;92.80;19.90;99969.00;;;;341750;28;84457;-92
2021/08/17 00:23:37;;;;;;;;;;;19.90;92.80;19.90;99961.00;;;;341308;28;91742;-92
2021/08/17 00:23:49;;;;;;;;;;;19.90;93.10;19.90;99966.00;;;;341763;28;83426;-93
2021/08/17 00:24:01;;;;;;;;;;;19.90;92.90;19.80;99965.00;;;;340053;28;90646;-92
2021/08/17 00:24:13;;;;;;;;;;;19.80;92.90;19.70;99960.00;;;;340453;28;82536;-91
2021/08/17 00:24:24;;;;;;;;;;;19.90;93.00;19.60;99959.00;;;;341459;28;90756;-92
2021/08/17 00:24:36;;;;;;;;;;;19.80;92.90;19.60;99963.00;;;;341682;28;83410;-91
2021/08/17 00:24:50;;;;;;;;;;;19.80;93.00;19.70;99960.00;;;;342854;28;90727;-92
2021/08/17 00:25:02;;;;;;;;;;;19.80;93.00;19.80;99965.00;;;;339162;28;83339;-93
2021/08/17 00:25:14;;;;;;;;;;;19.70;93.00;19.70;99960.00;;;;341301;28;91532;-92
2021/08/17 00:25:26;;;;;;;;;;;19.80;93.10;19.70;99962.00;;;;341844;28;83473;-91
2021/08/17 00:25:42;;;;;;;;;;;19.80;93.10;19.60;99959.00;;;;341325;28;91836;-92
2021/08/17 00:25:54;;;;;;;;;;;19.70;93.10;19.60;99961.00;;;;340061;28;82609;-92
2021/08/17 00:26:06;;;;;;;;;;;19.70;93.10;19.70;99958.00;;;;344051;28;90196;-91
2021/08/17 00:26:18;;;;;;;;;;;19.70;93.10;19.70;99957.00;;;;340161;28;82547;-91
2021/08/17 00:26:29;;;;;;;;;;;19.70;93.10;19.80;99961.00;;;;338754;28;91488;-91
2021/08/17 00:26:41;;;;;;;;;;;19.70;93.10;19.70;99964.00;;;;340391;28;83552;-92
2021/08/17 00:26:53;;;;;;;;;;;19.70;93.10;19.80;99955.00;;;;341295;28;90867;-92
2021/08/17 00:27:05;;;;;;;;;;;19.70;93.10;19.80;99955.00;;;;341839;28;83407;-92
2021/08/17 00:27:17;;;;;;;;;;;19.70;93.10;19.80;99954.00;;;;342648;28;93301;-92
2021/08/17 00:27:29;;;;;;;;;;;19.70;93.10;19.70;99961.00;;;;340501;28;82515;-91
2021/08/17 00:27:41;;;;;;;;;;;19.70;93.20;19.60;99965.00;;;;338680;28;92379;-93
2021/08/17 00:27:53;;;;;;;;;;;19.70;93.20;19.60;99956.00;;;;339195;28;83411;-92
2021/08/17 00:28:05;;;;;;;;;;;19.70;93.20;19.60;99967.00;;;;341358;28;91556;-91
2021/08/17 00:28:17;;;;;;;;;;;19.60;93.50;19.60;99956.00;;;;339134;28;83507;-92
2021/08/17 00:28:29;;;;;;;;;;;19.70;93.20;19.60;99959.00;;;;340049;28;91858;-91
2021/08/17 00:28:41;;;;;;;;;;;19.70;93.20;19.60;99962.00;;;;342985;27;82589;-93
2021/08/17 00:28:53;;;;;;;;;;;19.70;93.10;19.70;99959.00;;;;340788;28;90433;-92
2021/08/17 00:29:05;;;;;;;;;;;19.70;93.20;19.70;99954.00;;;;347406;28;83373;-91
2021/08/17 00:29:17;;;;;;;;;;;19.60;93.20;19.70;99962.00;;;;343852;28;93362;-92
2021/08/17 00:29:29;;;;;;;;;;;19.60;93.20;19.70;99966.00;;;;347499;28;82525;-92
2021/08/17 00:29:41;;;;;;;;;;;19.70;93.20;19.80;99959.00;;;;335956;28;91112;-92
2021/08/17 00:29:53;;;;;;;;;;;19.70;93.20;19.90;99963.00;;;;339733;28;83357;-92
2021/08/17 00:30:05;;;;;;;;;;;19.60;93.20;19.90;99972.00;;;;340100;28;92082;-92
2021/08/17 00:30:17;;;;;;;;;;;19.70;93.20;19.80;99963.00;;;;341879;28;82471;-92
2021/08/17 00:30:29;;;;;;;;;;;19.70;93.20;19.80;99965.00;;;;340109;28;90718;-92
2021/08/17 00:30:41;;;;;;;;;;;19.70;93.20;19.90;99969.00;;;;340421;28;82511;-93
2021/08/17 00:30:53;;;;;;;;;;;19.70;93.10;19.80;99962.00;;;;338477;28;91368;-92
2021/08/17 00:31:04;;;;;;;;;;;19.70;93.10;19.90;99968.00;;;;340557;28;82566;-91
2021/08/17 00:31:16;;;;;;;;;;;19.70;93.10;19.80;99963.00;;;;339941;28;90903;-92
2021/08/17 00:31:28;;;;;;;;;;;19.70;93.10;19.80;99958.00;;;;340432;28;83539;-92
2021/08/17 00:31:40;;;;;;;;;;;19.70;93.10;19.80;99959.00;;;;340070;28;90695;-91
2021/08/17 00:31:52;;;;;;;;;;;19.70;93.30;19.80;99959.00;;;;339057;28;83375;-92
2021/08/17 00:32:05;;;;;;;;;;;19.70;93.20;19.90;99965.00;;;;342622;28;90629;-91
2021/08/17 00:32:17;;;;;;;;;;;19.70;93.20;19.90;99960.00;;;;343099;28;83458;-92
2021/08/17 00:32:28;;;;;;;;;;;19.70;93.20;20.00;99960.00;;;;341445;28;91352;-91
2021/08/17 00:32:40;;;;;;;;;;;19.70;93.30;20.00;99968.00;;;;343117;28;82593;-91
2021/08/17 00:32:52;;;;;;;;;;;19.70;93.30;19.80;99963.00;;;;339525;28;91300;-92
2021/08/17 00:33:04;;;;;;;;;;;19.70;93.20;19.80;99966.00;;;;340493;28;83372;-92
2021/08/17 00:33:16;;;;;;;;;;;19.70;93.30;19.90;99962.00;;;;339803;28;90829;-91
2021/08/17 00:33:30;;;;;;;;;;;19.70;93.20;19.90;99967.00;;;;341814;28;83238;-92
2021/08/17 00:33:42;;;;;;;;;;;19.70;93.20;19.80;99964.00;;;;341322;28;91435;-92
2021/08/17 00:33:53;;;;;;;;;;;19.70;93.20;19.80;99956.00;;;;341820;28;82457;-92
2021/08/17 00:34:05;;;;;;;;;;;19.80;93.20;19.70;99966.00;;;;341361;28;90631;-91
2021/08/17 00:34:17;;;;;;;;;;;19.70;93.20;19.80;99966.00;;;;339125;28;83499;-92
2021/08/17 00:34:29;;;;;;;;;;;19.70;93.20;19.90;99961.00;;;;340052;28;90053;-92
2021/08/17 00:34:41;;;;;;;;;;;19.70;93.20;19.90;99966.00;;;;340137;28;83622;-93
2021/08/17 00:34:53;;;;;;;;;;;19.80;93.20;19.90;99961.00;;;;339539;28;89595;-92
2021/08/17 00:35:05;;;;;;;;;;;19.80;93.30;19.80;99965.00;;;;341714;28;83454;-92
2021/08/17 00:35:17;;;;;;;;;;;19.80;93.30;19.70;99963.00;;;;338547;28;92539;-91
2021/08/17 00:35:28;;;;;;;;;;;19.70;93.50;19.70;99967.00;;;;339239;28;83406;-91
2021/08/17 00:35:40;;;;;;;;;;;19.70;93.30;19.80;99964.00;;;;341491;28;90931;-92
2021/08/17 00:35:53;;;;;;;;;;;19.70;93.30;19.90;99965.00;;;;342466;28;82551;-92
2021/08/17 00:36:06;;;;;;;;;;;19.70;93.20;19.90;99966.00;;;;341457;28;89639;-92
2021/08/17 00:36:18;;;;;;;;;;;19.70;93.30;19.90;99969.00;;;;341817;28;82597;-91
2021/08/17 00:36:29;;;;;;;;;;;19.70;93.20;19.90;99967.00;;;;340127;28;90588;-92
2021/08/17 00:36:41;;;;;;;;;;;19.70;93.20;19.80;99959.00;;;;341718;28;83473;-92
2021/08/17 00:36:53;;;;;;;;;;;19.80;93.30;19.80;99966.00;;;;341457;28;90873;-92
2021/08/17 00:37:05;;;;;;;;;;;19.80;93.20;19.90;99959.00;;;;340468;28;83506;-92
2021/08/17 00:37:20;;;;;;;;;;;19.80;93.10;19.90;99962.00;;;;341309;28;91471;-91
2021/08/17 00:37:32;;;;;;;;;;;19.80;93.10;19.90;99963.00;;;;341551;28;83536;-92
2021/08/17 00:37:44;;;;;;;;;;;19.80;93.20;19.90;99962.00;;;;339942;28;90279;-92
2021/08/17 00:37:56;;;;;;;;;;;19.80;93.20;20.00;99963.00;;;;344853;28;82907;-91
2021/08/17 00:38:07;;;;;;;;;;;19.70;93.10;20.00;99960.00;;;;341670;28;91127;-91
2021/08/17 00:38:19;;;;;;;;;;;19.80;93.20;19.90;99963.00;;;;340486;28;82514;-91
2021/08/17 00:38:31;;;;;;;;;;;19.80;93.20;19.90;99952.00;;;;342911;28;90108;-92
2021/08/17 00:38:43;;;;;;;;;;;19.80;93.20;19.80;99953.00;;;;341748;28;83377;-92
2021/08/17 00:38:55;;;;;;;;;;;19.80;93.20;19.80;99964.00;;;;340417;28;91623;-92
2021/08/17 00:39:07;;;;;;;;;;;19.80;93.20;19.80;99964.00;;;;340584;28;82478;-91
2021/08/17 00:39:18;;;;;;;;;;;19.80;93.30;19.80;99956.00;;;;339918;28;92404;-92
2021/08/17 00:39:30;;;;;;;;;;;19.80;93.20;19.70;99954.00;;;;340604;28;82484;-91
2021/08/17 00:39:42;;;;;;;;;;;19.70;93.20;19.80;99968.00;;;;341193;28;91816;-91
2021/08/17 00:39:54;;;;;;;;;;;19.80;93.30;19.80;99957.00;;;;341711;28;83562;-92
2021/08/17 00:40:06;;;;;;;;;;;19.80;93.30;19.70;99955.00;;;;338688;28;89825;-92
2021/08/17 00:40:18;;;;;;;;;;;19.70;93.30;19.60;99966.00;;;;341812;28;83489;-92
2021/08/17 00:40:32;;;;;;;;;;;19.70;93.20;19.60;99956.00;;;;338710;28;91357;-92
2021/08/17 00:40:43;;;;;;;;;;;19.70;93.20;19.80;99965.00;;;;346128;28;83433;-92
2021/08/17 00:40:55;;;;;;;;;;;19.70;93.20;19.90;99958.00;;;;337734;28;91098;-92
2021/08/17 00:41:08;;;;;;;;;;;19.70;93.20;19.90;99958.00;;;;347369;28;83458;-92
2021/08/17 00:41:20;;;;;;;;;;;19.70;93.20;20.00;99963.00;;;;339579;28;93549;-92
2021/08/17 00:41:32;;;;;;;;;;;19.70;93.30;20.00;99965.00;;;;340664;28;82431;-92
2021/08/17 00:41:45;;;;;;;;;;;19.80;93.30;20.00;99958.00;;;;340095;28;91238;-91
2021/08/17 00:41:58;;;;;;;;;;;19.70;93.20;20.00;99964.00;;;;340321;28;83587;-91
2021/08/17 00:42:10;;;;;;;;;;;19.80;93.20;19.80;99960.00;;;;338755;28;89588;-91
2021/08/17 00:42:22;;;;;;;;;;;19.80;93.30;19.60;99955.00;;;;338860;28;83482;-92
2021/08/17 00:42:39;;;;;;;;;;;19.70;93.20;19.60;99956.00;;;;340031;28;92184;-92
2021/08/17 00:42:51;;;;;;;;;;;19.70;93.20;19.60;99958.00;;;;340456;28;83217;-91
2021/08/17 00:43:03;;;;;;;;;;;19.70;93.20;19.60;99958.00;;;;341484;28;90905;-92
2021/08/17 00:43:15;;;;;;;;;;;19.70;93.20;19.50;99954.00;;;;340458;28;82516;-91
2021/08/17 00:43:26;;;;;;;;;;;19.70;93.30;19.60;99957.00;;;;338602;28;93075;-91
2021/08/17 00:43:38;;;;;;;;;;;19.70;93.30;19.50;99961.00;;;;341751;28;82593;-92
2021/08/17 00:43:50;;;;;;;;;;;19.70;93.30;19.50;99965.00;;;;339923;28;90377;-91
2021/08/17 00:44:04;;;;;;;;;;;19.60;93.30;19.70;99961.00;;;;342864;28;83525;-91
2021/08/17 00:44:23;;;;;;;;;;;19.70;93.30;19.70;99958.00;;;;340070;28;91610;-92
2021/08/17 00:44:34;;;;;;;;;;;19.70;93.40;19.80;99961.00;;;;339215;28;82521;-92
2021/08/17 00:44:47;;;;;;;;;;;19.70;93.40;19.80;99964.00;;;;341431;28;91699;-91
2021/08/17 00:45:02;;;;;;;;;;;19.60;93.50;19.90;99963.00;;;;340354;28;82581;-91
2021/08/17 00:45:21;;;;;;;;;;;19.60;93.40;19.90;99965.00;;;;341311;27;91957;-91
2021/08/17 00:45:33;;;;;;;;;;;19.70;93.40;19.90;99955.00;;;;343259;28;82504;-93
2021/08/17 00:45:45;;;;;;;;;;;19.70;93.40;19.90;99958.00;;;;339982;28;92651;-91
2021/08/17 00:45:56;;;;;;;;;;;19.70;93.40;19.90;99958.00;;;;340352;28;83525;-92
2021/08/17 00:46:08;;;;;;;;;;;19.70;93.40;19.90;99965.00;;;;342531;28;90652;-91
2021/08/17 00:46:23;;;;;;;;;;;19.70;93.40;19.90;99957.00;;;;340499;28;83427;-92
2021/08/17 00:46:35;;;;;;;;;;;19.70;93.40;19.90;99956.00;;;;340039;28;91669;-91
2021/08/17 00:46:47;;;;;;;;;;;19.70;93.40;19.90;99959.00;;;;341941;27;83472;-91
2021/08/17 00:47:00;;;;;;;;;;;19.70;93.40;19.80;99962.00;;;;342053;28;90621;-91
2021/08/17 00:47:12;;;;;;;;;;;19.70;93.40;19.90;99955.00;;;;341829;28;83313;-92
2021/08/17 00:47:24;;;;;;;;;;;19.70;93.30;19.80;99964.00;;;;342271;28;91864;-92
2021/08/17 00:47:36;;;;;;;;;;;19.70;93.60;19.80;99963.00;;;;341911;28;83341;-91
2021/08/17 00:47:49;;;;;;;;;;;19.70;93.30;19.80;99959.00;;;;344140;28;91667;-92
2021/08/17 00:48:01;;;;;;;;;;;19.70;93.30;19.70;99965.00;;;;340397;28;82459;-92
2021/08/17 00:48:13;;;;;;;;;;;19.70;93.30;19.70;99966.00;;;;340036;28;92505;-93
2021/08/17 00:48:25;;;;;;;;;;;19.70;93.40;19.60;99963.00;;;;341843;28;83544;-92
2021/08/17 00:48:37;;;;;;;;;;;19.70;93.50;19.70;99967.00;;;;342672;28;90866;-92
2021/08/17 00:48:49;;;;;;;;;;;19.70;93.40;19.70;99966.00;;;;344401;28;83440;-92
2021/08/17 00:49:01;;;;;;;;;;;19.70;93.40;19.80;99970.00;;;;339850;28;90103;-91
2021/08/17 00:49:12;;;;;;;;;;;19.70;93.40;19.90;99967.00;;;;341846;28;83409;-91
2021/08/17 00:49:25;;;;;;;;;;;19.70;93.40;19.90;99963.00;;;;340059;28;90635;-92
2021/08/17 00:49:36;;;;;;;;;;;19.70;93.50;19.90;99968.00;;;;341796;28;82532;-91
2021/08/17 00:49:48;;;;;;;;;;;19.70;93.40;19.80;99965.00;;;;340418;28;92913;-92
2021/08/17 00:50:00;;;;;;;;;;;19.70;93.40;19.70;99968.00;;;;341525;28;83467;-92
2021/08/17 00:50:12;;;;;;;;;;;19.70;93.40;19.80;99964.00;;;;344065;28;92263;-91
2021/08/17 00:50:26;;;;;;;;;;;19.70;93.40;19.90;99967.00;;;;342679;28;83547;-91
2021/08/17 00:50:38;;;;;;;;;;;19.70;93.40;19.80;99963.00;;;;341334;28;90809;-92
2021/08/17 00:50:50;;;;;;;;;;;19.70;93.40;19.60;99963.00;;;;341716;28;82545;-91
2021/08/17 00:51:02;;;;;;;;;;;19.70;93.30;19.60;99967.00;;;;342699;28;91240;-91
2021/08/17 00:51:13;;;;;;;;;;;19.70;93.30;19.60;99963.00;;;;343115;28;82483;-91
2021/08/17 00:51:26;;;;;;;;;;;19.70;93.40;19.70;99962.00;;;;340069;28;91743;-91
2021/08/17 00:51:37;;;;;;;;;;;19.70;93.40;19.70;99963.00;;;;337738;28;83475;-92
2021/08/17 00:51:53;;;;;;;;;;;19.70;93.40;19.80;99968.00;;;;342763;28;91985;-91
2021/08/17 00:52:05;;;;;;;;;;;19.70;93.50;19.80;99966.00;;;;340340;28;83526;-91
2021/08/17 00:52:17;;;;;;;;;;;19.70;93.40;19.80;99966.00;;;;340052;28;92307;-91
2021/08/17 00:52:29;;;;;;;;;;;19.70;93.50;19.80;99966.00;;;;344499;28;83460;-92
2021/08/17 00:52:41;;;;;;;;;;;19.70;93.50;19.70;99974.00;;;;338641;28;91409;-92
2021/08/17 00:52:54;;;;;;;;;;;19.70;93.50;19.70;99960.00;;;;339307;28;83582;-91
2021/08/17 00:53:05;;;;;;;;;;;19.70;93.40;19.80;99964.00;;;;342575;28;91396;-92
2021/08/17 00:53:17;;;;;;;;;;;19.70;93.40;19.80;99966.00;;;;341669;28;83504;-93
2021/08/17 00:53:31;;;;;;;;;;;19.70;93.40;19.90;99966.00;;;;338669;28;89503;-91
2021/08/17 00:53:43;;;;;;;;;;;19.70;93.40;19.90;99967.00;;;;339194;28;83355;-92
2021/08/17 00:53:55;;;;;;;;;;;19.70;93.40;19.80;99962.00;;;;343915;28;91255;-92
2021/08/17 00:54:07;;;;;;;;;;;19.70;93.40;19.80;99963.00;;;;341699;28;83507;-91
2021/08/17 00:54:20;;;;;;;;;;;19.70;93.40;19.80;99964.00;;;;340152;28;90328;-92
2021/08/17 00:54:33;;;;;;;;;;;19.70;93.40;19.90;99965.00;;;;343145;28;83434;-91
2021/08/17 00:54:45;;;;;;;;;;;19.70;93.40;19.90;99959.00;;;;341389;28;91021;-91
2021/08/17 00:54:57;;;;;;;;;;;19.70;93.30;19.90;99959.00;;;;344519;28;83359;-92
2021/08/17 00:55:10;;;;;;;;;;;19.70;93.40;19.90;99964.00;;;;342735;28;91506;-92
2021/08/17 00:55:22;;;;;;;;;;;19.70;93.30;19.90;99965.00;;;;340275;28;83482;-92
2021/08/17 00:55:34;;;;;;;;;;;19.70;93.40;19.80;99960.00;;;;344058;28;91052;-91
2021/08/17 00:55:46;;;;;;;;;;;19.70;93.40;19.90;99964.00;;;;341691;27;83384;-91
2021/08/17 00:55:58;;;;;;;;;;;19.70;93.40;19.90;99956.00;;;;340827;28;91352;-92
2021/08/17 00:56:10;;;;;;;;;;;19.70;93.40;19.80;99961.00;;;;341683;28;84819;-92
2021/08/17 00:56:22;;;;;;;;;;;19.70;93.30;19.80;99956.00;;;;340797;28;90718;-91
2021/08/17 00:56:36;;;;;;;;;;;19.70;93.30;19.80;99966.00;;;;341745;28;82472;-91
2021/08/17 00:56:48;;;;;;;;;;;19.70;93.30;19.80;99969.00;;;;340077;28;92138;-91
2021/08/17 00:57:00;;;;;;;;;;;19.70;93.30;19.80;99959.00;;;;341800;28;83411;-92
2021/08/17 00:57:12;;;;;;;;;;;19.70;93.40;19.90;99965.00;;;;340013;28;90717;-92
2021/08/17 00:57:24;;;;;;;;;;;19.70;93.30;19.80;99961.00;;;;341829;28;83418;-91
2021/08/17 00:57:45;;;;;;;;;;;19.70;93.40;19.90;99966.00;;;;340050;28;91270;-92
2021/08/17 00:57:57;;;;;;;;;;;19.70;93.40;19.90;99957.00;;;;339152;28;82625;-91
2021/08/17 00:58:09;;;;;;;;;;;19.70;93.40;19.80;99959.00;;;;339870;28;91924;-92
2021/08/17 00:58:21;;;;;;;;;;;19.70;93.40;19.80;99962.00;;;;341863;28;82541;-91
2021/08/17 00:58:33;;;;;;;;;;;19.70;93.50;19.60;99969.00;;;;340133;28;90953;-91
2021/08/17 00:58:45;;;;;;;;;;;19.70;93.50;19.50;99969.00;;;;340478;28;82507;-91
2021/08/17 00:58:57;;;;;;;;;;;19.60;93.50;19.60;99969.00;;;;338111;28;90628;-91
2021/08/17 00:59:09;;;;;;;;;;;19.60;93.60;19.70;99963.00;;;;340516;28;83552;-91
2021/08/17 00:59:21;;;;;;;;;;;19.70;93.60;19.80;99965.00;;;;341267;28;90685;-91
2021/08/17 00:59:33;;;;;;;;;;;19.60;93.60;19.80;99967.00;;;;343207;28;83307;-92
2021/08/17 00:59:45;;;;;;;;;;;19.60;93.60;19.90;99960.00;;;;341431;28;90817;-91
2021/08/17 00:59:57;;;;;;;;;;;19.60;93.60;19.90;99963.00;;;;341687;28;83561;-92
2021/08/17 01:00:09;;;;;;;;;;;19.60;93.60;19.90;99967.00;;;;338568;28;93475;-93
2021/08/17 01:00:21;;;;;;;;;;;19.70;93.50;19.80;99962.00;;;;341835;28;82498;-92
2021/08/17 01:00:33;;;;;;;;;;;19.70;93.50;19.90;99969.00;;;;341376;28;91773;-91